createdAt,value
2019-04-24T00:03:12.969Z,97692.12
2019-04-24T00:06:19.130Z,97691.08
2019-04-24T00:11:55.526Z,97689.22
2019-04-24T00:14:23.629Z,97687.31
2019-04-24T00:17:00.438Z,97687.86
2019-04-24T00:24:39.146Z,97680.15
2019-04-24T00:29:48.849Z,97668.97
2019-04-24T00:35:02.126Z,97674.58
2019-04-24T00:37:30.934Z,97674.58
2019-04-24T00:40:08.683Z,97676.97
2019-04-24T00:42:53.687Z,97681.48
2019-04-24T00:47:59.277Z,97672.42
2019-04-24T00:50:14.827Z,97686.29
2019-04-24T00:55:39.411Z,97675.10
2019-04-24T00:58:11.795Z,97679.89
2019-04-24T01:00:55.149Z,97679.89
2019-04-24T01:06:27.108Z,97668.44
2019-04-24T01:08:54.477Z,97668.70
2019-04-24T01:11:26.415Z,97668.70
2019-04-24T01:16:51.236Z,97686.30
2019-04-24T01:19:23.601Z,97686.30
2019-04-24T01:22:09.893Z,97664.97
2019-04-24T01:24:29.317Z,97672.46
2019-04-24T01:27:10.839Z,97671.38
2019-04-24T01:29:43.657Z,97671.38
2019-04-24T01:32:21.502Z,97668.45
2019-04-24T01:34:58.295Z,97673.23
2019-04-24T01:40:46.809Z,97673.78
2019-04-24T01:43:26.898Z,97675.66
2019-04-24T01:46:11.689Z,97682.04
2019-04-24T01:50:58.904Z,97671.69
2019-04-24T01:53:31.949Z,97685.52
2019-04-24T01:56:15.738Z,97685.52
2019-04-24T01:58:42.523Z,97675.36
2019-04-24T02:03:54.641Z,97678.02
2019-04-24T02:06:30.420Z,97680.70
2019-04-24T02:11:56.434Z,97686.06
2019-04-24T02:17:22.754Z,97689.77
2019-04-24T02:19:35.227Z,97689.77
2019-04-24T02:22:24.207Z,97693.77
2019-04-24T02:24:58.516Z,97692.43
2019-04-24T02:27:28.964Z,97693.78
2019-04-24T02:30:04.817Z,97696.19
2019-04-24T02:33:03.893Z,97691.91
2019-04-24T02:35:39.384Z,97691.09
2019-04-24T02:38:26.128Z,97690.56
2019-04-24T02:43:23.078Z,97686.86
2019-04-24T02:49:04.454Z,97690.81
2019-04-24T02:53:41.278Z,97691.89
2019-04-24T02:58:57.147Z,97697.48
2019-04-24T03:01:20.293Z,97697.25
2019-04-24T03:19:49.655Z,97686.05
2019-04-24T03:22:26.208Z,97687.38
2019-04-24T03:38:49.313Z,97711.92
2019-04-24T03:56:56.390Z,97715.37
2019-04-24T03:59:51.010Z,97715.37
2019-04-24T04:02:54.947Z,97720.19
2019-04-24T04:05:16.219Z,97734.04
2019-04-24T04:10:27.976Z,97727.37
2019-04-24T04:31:57.869Z,97735.13
2019-04-24T04:34:47.097Z,97729.00
2019-04-24T04:40:05.762Z,97735.11
2019-04-24T04:47:45.224Z,97738.56
2019-04-24T05:01:41.013Z,97736.69
2019-04-24T05:04:27.010Z,97731.36
2019-04-24T05:22:24.028Z,97750.84
2019-04-24T05:25:06.836Z,97760.97
2019-04-24T05:27:34.873Z,97760.97
2019-04-24T05:30:36.186Z,97754.78
2019-04-24T05:35:50.008Z,97752.66
2019-04-24T05:38:51.699Z,97764.64
2019-04-24T05:41:32.855Z,97762.22
2019-04-24T05:43:55.718Z,97766.73
2019-04-24T05:46:26.100Z,97772.56
2019-04-24T05:54:28.492Z,97788.25
2019-04-24T05:57:44.563Z,97782.78
2019-04-24T06:02:40.208Z,97788.87
2019-04-24T06:08:12.580Z,97776.98
2019-04-24T06:10:47.750Z,97784.13
2019-04-24T06:16:20.570Z,97785.05
2019-04-24T06:21:40.234Z,97787.95
2019-04-24T06:26:56.422Z,97780.83
2019-04-24T06:35:08.006Z,97791.24
2019-04-24T06:48:14.004Z,97779.53
2019-04-24T06:53:20.592Z,97776.68
2019-04-24T07:01:38.085Z,97789.23
2019-04-24T07:04:50.162Z,97784.51
2019-04-24T07:06:49.204Z,97780.48
2019-04-24T07:09:45.431Z,97779.73
2019-04-24T07:12:44.669Z,97777.39
2019-04-24T07:15:36.655Z,97784.91
2019-04-24T07:26:00.989Z,97782.80
2019-04-24T07:28:35.350Z,97789.96
2019-04-24T07:39:50.433Z,97786.30
2019-04-24T07:44:42.549Z,97789.48
2019-04-24T07:47:15.570Z,97792.16
2019-04-24T07:49:52.925Z,97800.06
2019-04-24T07:57:59.770Z,97786.92
2019-04-24T08:05:31.729Z,97795.23
2019-04-24T08:08:16.972Z,97793.41
2019-04-24T08:16:06.002Z,97786.12
2019-04-24T08:18:48.809Z,97783.50
2019-04-24T08:21:19.828Z,97780.91
2019-04-24T08:23:57.588Z,97784.98
2019-04-24T08:26:24.242Z,97784.73
2019-04-24T08:31:44.535Z,97791.55
2019-04-24T08:34:28.293Z,97779.12
2019-04-24T08:36:53.275Z,97785.86
2019-04-24T08:39:42.275Z,97791.51
2019-04-24T08:42:40.963Z,97781.83
2019-04-24T08:45:08.383Z,97781.02
2019-04-24T08:47:52.443Z,97785.90
2019-04-24T08:50:44.054Z,97778.02
2019-04-24T08:52:55.650Z,97782.79
2019-04-24T08:55:32.975Z,97780.46
2019-04-24T09:00:41.490Z,97770.67
2019-04-24T09:12:04.028Z,97769.61
2019-04-24T09:22:12.113Z,97763.51
2019-04-24T09:25:23.800Z,97762.22
2019-04-24T09:28:00.050Z,97765.74
2019-04-24T09:30:38.444Z,97757.75
2019-04-24T09:38:52.411Z,97749.76
2019-04-24T09:43:56.485Z,97740.95
2019-04-24T09:46:26.318Z,97746.47
2019-04-24T09:49:00.399Z,97742.19
2019-04-24T09:54:26.737Z,97736.52
2019-04-24T09:57:10.351Z,97734.44
2019-04-24T09:59:40.436Z,97734.38
2019-04-24T10:02:33.367Z,97724.14
2019-04-24T10:07:57.352Z,97727.13
2019-04-24T10:13:22.718Z,97724.77
2019-04-24T10:18:22.756Z,97726.95
2019-04-24T10:21:07.405Z,97715.95
2019-04-24T10:24:06.781Z,97710.00
2019-04-24T10:35:31.742Z,97700.20
2019-04-24T10:43:46.289Z,97700.95
2019-04-24T10:46:47.288Z,97670.47
2019-04-24T10:49:19.119Z,97696.39
2019-04-24T10:57:11.152Z,97695.83
2019-04-24T10:59:49.414Z,97688.89
2019-04-24T11:10:44.257Z,97678.06
2019-04-24T11:16:52.212Z,97671.57
2019-04-24T11:22:32.233Z,97674.39
2019-04-24T11:25:14.080Z,97665.13
2019-04-24T11:30:20.860Z,97659.13
2019-04-24T11:33:16.600Z,97651.09
2019-04-24T11:35:57.096Z,97647.02
2019-04-24T11:38:52.588Z,97640.34
2019-04-24T11:41:46.551Z,97651.46
2019-04-24T11:44:12.365Z,97632.31
2019-04-24T11:47:16.258Z,97632.31
2019-04-24T11:50:27.648Z,97634.42
2019-04-24T11:55:42.075Z,97630.23
2019-04-24T11:58:37.460Z,97632.81
2019-04-24T12:01:34.401Z,97632.27
2019-04-24T12:09:20.457Z,97633.41
2019-04-24T12:11:53.808Z,97630.84
2019-04-24T12:14:48.873Z,97609.47
2019-04-24T12:17:33.561Z,97624.89
2019-04-24T12:20:16.562Z,97619.98
2019-04-24T12:25:41.286Z,97624.91
2019-04-24T12:28:17.414Z,97625.31
2019-04-24T12:30:53.269Z,97628.75
2019-04-24T12:33:44.977Z,97626.06
2019-04-24T12:36:19.286Z,97627.84
2019-04-24T12:41:32.703Z,97624.62
2019-04-24T12:44:43.257Z,97622.90
2019-04-24T12:47:12.230Z,97629.66
2019-04-24T12:49:50.332Z,97631.15
2019-04-24T12:52:29.180Z,97635.55
2019-04-24T12:55:09.448Z,97628.84
2019-04-24T12:58:03.490Z,97634.33
2019-04-24T13:00:35.867Z,97638.95
2019-04-24T13:03:12.341Z,97630.03
2019-04-24T13:05:49.125Z,97636.97
2019-04-24T13:14:14.883Z,97638.80
2019-04-24T13:17:30.164Z,97641.20
2019-04-24T13:21:47.693Z,97633.26
2019-04-24T13:24:36.330Z,97635.20
2019-04-24T13:27:51.659Z,97637.27
2019-04-24T13:30:12.137Z,97625.83
2019-04-24T13:33:03.596Z,97636.85
2019-04-24T13:35:25.824Z,97630.41
2019-04-24T13:38:18.934Z,97641.66
2019-04-24T13:40:48.212Z,97633.98
2019-04-24T13:48:34.684Z,97636.00
2019-04-24T13:51:08.195Z,97633.00
2019-04-24T13:53:56.719Z,97633.80
2019-04-24T13:56:03.387Z,97645.41
2019-04-24T13:58:50.035Z,97638.78
2019-04-24T14:06:42.847Z,97642.80
2019-04-24T14:12:34.516Z,97648.02
2019-04-24T14:20:06.109Z,97639.77
2019-04-24T14:22:20.310Z,97642.82
2019-04-24T14:25:15.989Z,97647.41
2019-04-24T14:27:39.667Z,97648.25
2019-04-24T14:30:14.037Z,97647.33
2019-04-24T14:32:58.275Z,97648.30
2019-04-24T14:35:30.480Z,97651.41
2019-04-24T14:38:02.836Z,97647.97
2019-04-24T14:40:40.571Z,97646.27
2019-04-24T14:43:23.716Z,97640.98
2019-04-24T14:48:36.438Z,97647.84
2019-04-24T14:51:10.788Z,97662.72
2019-04-24T14:53:48.810Z,97656.73
2019-04-24T14:56:12.491Z,97653.53
2019-04-24T14:58:56.687Z,97658.21
2019-04-24T15:01:23.408Z,97655.07
2019-04-24T15:04:01.927Z,97648.91
2019-04-24T15:06:40.294Z,97651.31
2019-04-24T15:09:16.197Z,97645.27
2019-04-24T15:12:06.705Z,97652.80
2019-04-24T15:14:33.924Z,97649.44
2019-04-24T15:25:28.495Z,97653.52
2019-04-24T15:27:46.702Z,97666.41
2019-04-24T15:30:09.448Z,97670.52
2019-04-24T15:38:02.470Z,97673.77
2019-04-24T15:43:17.770Z,97668.70
2019-04-24T15:45:54.897Z,97673.16
2019-04-24T15:53:03.693Z,97673.34
2019-04-24T15:55:39.255Z,97674.63
2019-04-24T15:58:20.138Z,97678.67
2019-04-24T16:01:21.910Z,97682.45
2019-04-24T16:06:14.559Z,97687.27
2019-04-24T16:08:47.986Z,97688.28
2019-04-24T16:11:20.449Z,97697.59
2019-04-24T16:14:03.958Z,97692.00
2019-04-24T16:16:54.974Z,97693.30
2019-04-24T16:22:07.406Z,97693.63
2019-04-24T16:30:02.821Z,97695.58
2019-04-24T16:35:08.914Z,97683.63
2019-04-24T16:44:06.230Z,97695.59
2019-04-24T16:46:50.482Z,97696.84
2019-04-24T16:50:14.471Z,97692.81
2019-04-24T16:56:17.145Z,97696.66
2019-04-24T16:59:14.896Z,97698.55
2019-04-24T17:02:18.171Z,97704.48
2019-04-24T17:05:38.812Z,97714.78
2019-04-24T17:08:49.333Z,97715.61
2019-04-24T17:15:05.902Z,97710.89
2019-04-24T17:17:59.127Z,97718.23
2019-04-24T17:20:42.474Z,97718.84
2019-04-24T17:38:17.439Z,97724.77
2019-04-24T17:40:49.272Z,97731.45
2019-04-24T17:43:56.738Z,97727.25
2019-04-24T17:46:19.477Z,97731.53
2019-04-24T17:48:57.590Z,97730.41
2019-04-24T17:51:28.472Z,97734.48
2019-04-24T17:54:02.004Z,97735.40
2019-04-24T17:56:42.548Z,97737.30
2019-04-24T17:58:41.381Z,97735.51
2019-04-24T18:01:14.191Z,97740.83
2019-04-24T18:03:45.566Z,97748.04
2019-04-24T18:06:17.156Z,97751.31
2019-04-24T18:08:48.500Z,97749.38
2019-04-24T18:11:21.488Z,97756.36
2019-04-24T18:13:53.000Z,97751.31
2019-04-24T18:16:24.434Z,97755.15
2019-04-24T18:18:55.955Z,97748.16
2019-04-24T18:21:27.299Z,97749.17
2019-04-24T18:24:01.268Z,97754.67
2019-04-24T18:26:54.947Z,97758.92
2019-04-24T18:29:26.223Z,97755.50
2019-04-24T18:31:57.559Z,97754.98
2019-04-24T18:34:31.828Z,97761.92
2019-04-24T18:37:05.548Z,97763.68
2019-04-24T18:39:36.920Z,97766.34
2019-04-24T18:42:08.674Z,97774.87
2019-04-24T18:44:41.450Z,97780.25
2019-04-24T18:47:13.634Z,97780.01
2019-04-24T18:49:44.908Z,97775.73
2019-04-24T18:52:16.335Z,97783.62
2019-04-24T18:54:49.181Z,97787.73
2019-04-24T18:57:22.052Z,97800.98
2019-04-24T18:59:53.544Z,97809.70
2019-04-24T19:02:24.949Z,97806.53
2019-04-24T19:04:56.246Z,97808.50
2019-04-24T19:07:27.609Z,97826.97
2019-04-24T19:09:58.976Z,97829.33
2019-04-24T19:12:31.497Z,97823.92
2019-04-24T19:15:04.577Z,97822.51
2019-04-24T19:17:36.016Z,97822.68
2019-04-24T19:20:09.434Z,97812.91
2019-04-24T19:22:42.238Z,97816.07
2019-04-24T19:25:13.947Z,97814.66
2019-04-24T19:27:45.284Z,97815.13
2019-04-24T19:30:16.930Z,97804.13
2019-04-24T19:32:48.294Z,97813.20
2019-04-24T19:35:19.603Z,97809.38
2019-04-24T19:37:52.499Z,97804.16
2019-04-24T19:40:36.809Z,97809.06
2019-04-24T19:42:58.597Z,97813.20
2019-04-24T19:45:31.407Z,97809.12
2019-04-24T19:48:02.850Z,97805.06
2019-04-24T19:50:34.206Z,97805.78
2019-04-24T19:53:14.384Z,97808.48
2019-04-24T19:55:38.409Z,97810.92
2019-04-24T19:58:09.860Z,97810.20
2019-04-24T20:00:42.908Z,97798.95
2019-04-24T20:03:16.034Z,97805.17
2019-04-24T20:05:47.418Z,97808.94
2019-04-24T20:08:18.707Z,97807.00
2019-04-24T20:11:13.455Z,97807.28
2019-04-24T20:13:45.066Z,97803.12
2019-04-24T20:16:16.614Z,97812.56
2019-04-24T20:18:47.965Z,97807.80
2019-04-24T20:21:19.383Z,97808.95
2019-04-24T20:23:52.426Z,97802.09
2019-04-24T20:26:26.435Z,97802.23
2019-04-24T20:28:57.836Z,97813.67
2019-04-24T20:31:29.134Z,97813.13
2019-04-24T20:34:01.367Z,97808.28
2019-04-24T20:36:32.700Z,97802.26
2019-04-24T20:39:05.401Z,97798.46
2019-04-24T20:41:36.708Z,97798.09
2019-04-24T20:44:08.132Z,97803.92
2019-04-24T20:46:39.489Z,97817.28
2019-04-24T20:49:11.251Z,97812.39
2019-04-24T20:51:42.516Z,97805.03
2019-04-24T20:54:13.906Z,97814.88
2019-04-24T20:56:45.489Z,97808.27
2019-04-24T20:59:17.767Z,97814.23
2019-04-24T21:01:49.213Z,97821.39
2019-04-24T21:04:22.173Z,97824.13
2019-04-24T21:07:06.690Z,97829.82
2019-04-24T21:09:42.248Z,97827.23
2019-04-24T21:12:13.559Z,97837.20
2019-04-24T21:14:47.818Z,97833.78
2019-04-24T21:17:19.599Z,97831.38
2019-04-24T21:19:52.153Z,97835.85
2019-04-24T21:22:24.127Z,97839.66
2019-04-24T21:24:55.538Z,97841.33
2019-04-24T21:27:27.730Z,97843.40
2019-04-24T21:29:59.207Z,97848.77
2019-04-24T21:32:31.925Z,97853.16
2019-04-24T21:35:03.647Z,97846.45
2019-04-24T21:37:35.032Z,97851.34
2019-04-24T21:40:07.674Z,97856.89
2019-04-24T21:42:39.131Z,97868.47
2019-04-24T21:45:10.820Z,97871.49
2019-04-24T21:47:42.957Z,97879.72
2019-04-24T21:50:14.507Z,97871.10
2019-04-24T21:52:45.775Z,97878.09
2019-04-24T21:55:17.233Z,97878.92
2019-04-24T21:58:06.694Z,97885.67
2019-04-24T22:01:01.314Z,97881.69
2019-04-24T22:03:54.772Z,97888.09
2019-04-24T22:06:41.740Z,97890.27
2019-04-24T22:09:17.610Z,97908.86
2019-04-24T22:11:48.964Z,97908.33
2019-04-24T22:14:22.080Z,97905.53
2019-04-24T22:16:55.152Z,97901.31
2019-04-24T22:19:26.986Z,97898.28
2019-04-24T22:22:21.955Z,97904.22
2019-04-24T22:25:15.753Z,97904.30
2019-04-24T22:27:47.208Z,97902.00
2019-04-24T22:30:26.915Z,97910.51
2019-04-24T22:32:58.264Z,97921.48
2019-04-24T22:35:33.831Z,97919.50
2019-04-24T22:38:06.818Z,97913.09
2019-04-24T22:40:47.526Z,97919.42
2019-04-24T22:43:18.811Z,97917.18
2019-04-24T22:45:51.691Z,97929.59
2019-04-24T22:48:23.193Z,97927.74
2019-04-24T22:50:54.734Z,97922.95
2019-04-24T22:53:27.586Z,97921.06
2019-04-24T22:55:58.836Z,97925.44
2019-04-24T22:58:30.583Z,97928.94
2019-04-24T23:01:03.701Z,97925.77
2019-04-24T23:03:36.943Z,97932.56
2019-04-24T23:06:08.463Z,97941.98
2019-04-24T23:08:42.436Z,97939.34
2019-04-24T23:11:15.445Z,97929.19
2019-04-24T23:13:46.992Z,97929.48
2019-04-24T23:16:18.488Z,97933.80
2019-04-24T23:18:49.778Z,97932.23
2019-04-24T23:21:37.569Z,97938.38
2019-04-24T23:24:21.665Z,97938.93
2019-04-24T23:27:01.863Z,97942.72
2019-04-24T23:29:39.407Z,97941.41
2019-04-24T23:32:23.096Z,97937.69
2019-04-24T23:34:54.346Z,97941.21
2019-04-24T23:37:25.657Z,97934.00
2019-04-24T23:39:57.011Z,97928.16
2019-04-24T23:42:31.845Z,97934.58
2019-04-24T23:45:03.108Z,97935.11
2019-04-24T23:47:34.713Z,97941.56
2019-04-24T23:50:06.949Z,97939.93
2019-04-24T23:52:38.222Z,97929.77
2019-04-24T23:55:09.814Z,97936.41
2019-04-24T23:57:41.871Z,97940.70
